createdAt,value
2022-08-12T00:00:12.214Z,100222.28
2022-08-12T00:03:01.710Z,100227.97
2022-08-12T00:06:01.851Z,100233.66
2022-08-12T00:08:54.158Z,100237.75
2022-08-12T00:11:44.177Z,100234.91
2022-08-12T00:14:32.166Z,100237.75
2022-08-12T00:17:21.200Z,100230.44
2022-08-12T00:20:14.262Z,100234.53
2022-08-12T00:23:03.065Z,100236.56
2022-08-12T00:26:20.861Z,100231.28
2022-08-12T00:29:08.483Z,100237.44
2022-08-12T00:31:55.313Z,100238.22
2022-08-12T00:34:42.550Z,100230.91
2022-08-12T00:37:34.008Z,100235.81
2022-08-12T00:40:23.364Z,100233.78
2022-08-12T00:42:56.177Z,100228.50
2022-08-12T00:45:27.030Z,100231.75
2022-08-12T00:47:58.945Z,100235.38
2022-08-12T00:50:33.704Z,100235.38
2022-08-12T00:53:10.356Z,100223.59
2022-08-12T00:55:48.546Z,100228.50
2022-08-12T00:58:25.656Z,100234.22
2022-08-12T01:01:02.458Z,100222.44
2022-08-12T01:03:52.289Z,100226.91
2022-08-12T01:06:43.000Z,100223.25
2022-08-12T01:09:34.858Z,100222.44
2022-08-12T01:12:08.981Z,100221.66
2022-08-12T01:14:44.196Z,100220.81
2022-08-12T01:17:15.772Z,100217.56
2022-08-12T01:19:49.194Z,100224.06
2022-08-12T01:22:28.473Z,100226.13
2022-08-12T01:25:12.990Z,100228.13
2022-08-12T01:27:44.898Z,100230.19
2022-08-12T01:30:18.484Z,100224.50
2022-08-12T01:32:54.482Z,100230.19
2022-08-12T01:35:26.896Z,100220.81
2022-08-12T01:38:05.515Z,100229.38
2022-08-12T01:40:46.826Z,100227.38
2022-08-12T01:43:25.742Z,100218.53
2022-08-12T01:46:11.668Z,100217.78
2022-08-12T01:49:10.149Z,100212.94
2022-08-12T01:52:15.128Z,100216.22
2022-08-12T01:54:44.090Z,100213.00
2022-08-12T01:57:57.681Z,100217.06
2022-08-12T02:00:35.508Z,100218.31
2022-08-12T02:03:30.593Z,100211.81
2022-08-12T02:06:33.215Z,100210.22
2022-08-12T02:09:25.025Z,100222.84
2022-08-12T02:12:16.376Z,100212.69
2022-08-12T02:15:03.003Z,100220.44
2022-08-12T02:18:00.249Z,100214.72
2022-08-12T02:20:51.682Z,100214.34
2022-08-12T02:23:29.265Z,100213.97
2022-08-12T02:26:07.184Z,100219.66
2022-08-12T02:28:40.023Z,100212.81
2022-08-12T02:31:13.236Z,100223.41
2022-08-12T02:33:47.334Z,100218.13
2022-08-12T02:36:19.566Z,100212.44
2022-08-12T02:38:55.478Z,100214.47
2022-08-12T02:41:32.791Z,100218.56
2022-08-12T02:44:11.086Z,100216.16
2022-08-12T02:46:49.494Z,100211.69
2022-08-12T02:49:34.617Z,100213.72
2022-08-12T02:52:08.264Z,100214.97
2022-08-12T02:54:41.471Z,100216.19
2022-08-12T02:57:14.285Z,100219.03
2022-08-12T02:59:46.710Z,100212.09
2022-08-12T03:02:24.898Z,100222.72
2022-08-12T03:05:01.472Z,100221.88
2022-08-12T03:07:56.340Z,100226.78
2022-08-12T03:10:37.758Z,100232.09
2022-08-12T03:13:10.738Z,100241.88
2022-08-12T03:15:42.367Z,100239.03
2022-08-12T03:18:27.595Z,100239.03
2022-08-12T03:21:00.779Z,100243.94
2022-08-12T03:23:33.574Z,100241.06
2022-08-12T03:26:07.403Z,100239.47
2022-08-12T03:28:57.799Z,100247.19
2022-08-12T03:31:32.941Z,100246.84
2022-08-12T03:34:10.205Z,100254.13
2022-08-12T03:36:44.007Z,100242.78
2022-08-12T03:39:35.937Z,100251.75
2022-08-12T03:42:35.874Z,100247.72
2022-08-12T03:45:50.094Z,100244.03
2022-08-12T03:48:41.307Z,100246.53
2022-08-12T03:51:31.683Z,100245.28
2022-08-12T03:54:19.934Z,100244.47
2022-08-12T03:57:07.931Z,100246.88
2022-08-12T03:59:54.830Z,100242.81
2022-08-12T04:02:28.066Z,100247.28
2022-08-12T04:04:59.542Z,100257.00
2022-08-12T04:07:34.371Z,100243.59
2022-08-12T04:10:06.026Z,100239.09
2022-08-12T04:12:52.979Z,100251.28
2022-08-12T04:15:26.516Z,100250.47
2022-08-12T04:18:06.065Z,100249.22
2022-08-12T04:20:39.268Z,100252.88
2022-08-12T04:23:16.799Z,100255.31
2022-08-12T04:25:47.351Z,100260.13
2022-08-12T04:28:18.299Z,100252.78
2022-08-12T04:30:48.578Z,100258.03
2022-08-12T04:33:19.480Z,100255.13
2022-08-12T04:35:50.350Z,100256.31
2022-08-12T04:38:23.568Z,100261.59
2022-08-12T04:40:54.476Z,100261.16
2022-08-12T04:44:00.854Z,100256.22
2022-08-12T04:46:22.855Z,100257.38
2022-08-12T04:48:55.138Z,100262.63
2022-08-12T04:51:30.735Z,100261.41
2022-08-12T04:54:06.654Z,100259.31
2022-08-12T04:56:37.925Z,100258.47
2022-08-12T04:59:08.208Z,100265.34
2022-08-12T05:01:39.089Z,100262.88
2022-08-12T05:04:13.391Z,100266.44
2022-08-12T05:06:43.629Z,100259.09
2022-08-12T05:09:17.620Z,100265.16
2022-08-12T05:11:53.897Z,100261.47
2022-08-12T05:14:26.093Z,100267.09
2022-08-12T05:16:57.587Z,100271.50
2022-08-12T05:19:28.900Z,100269.81
2022-08-12T05:21:59.708Z,100266.47
2022-08-12T05:24:33.183Z,100269.28
2022-08-12T05:27:04.729Z,100273.22
2022-08-12T05:30:06.683Z,100277.63
2022-08-12T05:32:26.781Z,100272.66
2022-08-12T05:34:57.771Z,100270.13
2022-08-12T05:37:29.020Z,100273.72
2022-08-12T05:40:03.035Z,100271.19
2022-08-12T05:42:35.560Z,100275.16
2022-08-12T05:45:07.409Z,100273.03
2022-08-12T05:47:52.655Z,100271.66
2022-08-12T05:50:25.079Z,100278.47
2022-08-12T05:52:56.002Z,100280.81
2022-08-12T05:55:31.378Z,100283.94
2022-08-12T05:58:03.634Z,100279.44
2022-08-12T06:00:36.723Z,100298.50
2022-08-12T06:03:08.857Z,100285.44
2022-08-12T06:05:54.235Z,100283.31
2022-08-12T06:08:38.611Z,100290.19
2022-08-12T06:11:11.536Z,100286.47
2022-08-12T06:13:54.303Z,100293.34
2022-08-12T06:16:28.103Z,100292.09
2022-08-12T06:18:58.975Z,100292.47
2022-08-12T06:21:31.504Z,100290.44
2022-08-12T06:24:02.451Z,100287.91
2022-08-12T06:26:35.576Z,100291.50
2022-08-12T06:29:06.776Z,100292.59
2022-08-12T06:31:36.848Z,100294.50
2022-08-12T06:35:26.456Z,100298.38
2022-08-12T06:36:59.789Z,100298.16
2022-08-12T06:39:31.474Z,100291.03
2022-08-12T06:42:42.198Z,100289.69
2022-08-12T06:45:14.147Z,100286.44
2022-08-12T06:47:45.342Z,100293.28
2022-08-12T06:50:18.920Z,100298.91
2022-08-12T06:52:51.374Z,100296.78
2022-08-12T06:55:26.337Z,100295.84
2022-08-12T06:58:10.023Z,100289.47
2022-08-12T07:00:44.113Z,100295.91
2022-08-12T07:03:23.235Z,100299.09
2022-08-12T07:05:55.263Z,100294.44
2022-08-12T07:08:29.562Z,100300.88
2022-08-12T07:11:02.279Z,100301.56
2022-08-12T07:14:12.789Z,100296.13
2022-08-12T07:16:49.675Z,100291.59
2022-08-12T07:19:20.506Z,100291.94
2022-08-12T07:22:01.698Z,100302.13
2022-08-12T07:24:34.242Z,100296.03
2022-08-12T07:27:05.380Z,100293.91
2022-08-12T07:30:04.049Z,100295.41
2022-08-12T07:32:29.557Z,100296.56
2022-08-12T07:35:00.318Z,100300.59
2022-08-12T07:37:31.702Z,100301.41
2022-08-12T07:40:02.684Z,100308.38
2022-08-12T07:42:34.616Z,100302.66
2022-08-12T07:45:08.363Z,100305.03
2022-08-12T07:47:40.463Z,100309.09
2022-08-12T07:50:12.267Z,100304.09
2022-08-12T07:52:45.845Z,100305.59
2022-08-12T07:55:20.083Z,100307.13
2022-08-12T07:57:59.795Z,100305.34
2022-08-12T08:00:34.698Z,100305.69
2022-08-12T08:03:05.699Z,100304.78
2022-08-12T08:05:40.228Z,100298.16
2022-08-12T08:08:18.709Z,100298.16
2022-08-12T08:10:50.118Z,100301.38
2022-08-12T08:13:19.855Z,100303.78
2022-08-12T08:16:03.712Z,100296.34
2022-08-12T08:18:34.492Z,100301.19
2022-08-12T08:21:05.451Z,100296.25
2022-08-12T08:23:58.136Z,100297.06
2022-08-12T08:26:33.298Z,100294.22
2022-08-12T08:29:03.492Z,100292.06
2022-08-12T08:31:37.103Z,100293.66
2022-08-12T08:34:47.152Z,100287.03
2022-08-12T08:36:59.012Z,100284.44
2022-08-12T08:39:35.176Z,100284.44
2022-08-12T08:42:22.159Z,100269.69
2022-08-12T08:44:57.771Z,100275.66
2022-08-12T08:47:31.398Z,100281.63
2022-08-12T08:50:03.790Z,100275.00
2022-08-12T08:52:39.021Z,100275.78
2022-08-12T08:55:14.944Z,100276.16
2022-08-12T08:57:49.913Z,100273.28
2022-08-12T09:00:23.717Z,100269.16
2022-08-12T09:02:58.695Z,100264.25
2022-08-12T09:05:43.207Z,100258.06
2022-08-12T09:08:26.789Z,100253.97
2022-08-12T09:12:06.517Z,100257.63
2022-08-12T09:14:18.830Z,100250.75
2022-08-12T09:16:50.911Z,100255.69
2022-08-12T09:19:27.279Z,100253.59
2022-08-12T09:22:00.407Z,100258.06
2022-08-12T09:24:31.886Z,100256.00
2022-08-12T09:27:03.142Z,100246.97
2022-08-12T09:30:08.707Z,100243.28
2022-08-12T09:32:56.074Z,100244.47
2022-08-12T09:35:28.525Z,100235.88
2022-08-12T09:38:01.980Z,100243.53
2022-08-12T09:41:01.980Z,100241.03
2022-08-12T09:43:47.076Z,100242.28
2022-08-12T09:46:25.078Z,100240.25
2022-08-12T09:48:57.304Z,100220.53
2022-08-12T09:51:43.861Z,100225.81
2022-08-12T09:54:33.234Z,100226.59
2022-08-12T09:58:45.472Z,100230.28
2022-08-12T10:00:16.439Z,100233.94
2022-08-12T10:03:05.677Z,100240.44
2022-08-12T10:06:19.604Z,100237.25
2022-08-12T10:08:34.326Z,100239.41
2022-08-12T10:11:27.391Z,100244.69
2022-08-12T10:13:58.679Z,100233.69
2022-08-12T10:16:38.572Z,100232.09
2022-08-12T10:19:17.618Z,100233.34
2022-08-12T10:21:49.187Z,100233.81
2022-08-12T10:24:28.951Z,100232.66
2022-08-12T10:27:15.923Z,100234.28
2022-08-12T10:30:37.473Z,100231.41
2022-08-12T10:32:42.839Z,100228.19
2022-08-12T10:35:18.403Z,100233.09
2022-08-12T10:38:35.714Z,100232.19
2022-08-12T10:41:04.017Z,100229.69
2022-08-12T10:43:55.311Z,100237.03
2022-08-12T10:46:30.503Z,100235.41
2022-08-12T10:49:06.587Z,100243.09
2022-08-12T10:52:32.351Z,100239.41
2022-08-12T10:54:49.260Z,100237.81
2022-08-12T10:58:15.174Z,100238.97
2022-08-12T11:00:33.843Z,100231.66
2022-08-12T11:04:22.848Z,100235.78
2022-08-12T11:07:09.837Z,100238.28
2022-08-12T11:08:51.864Z,100226.81
2022-08-12T11:11:27.794Z,100230.47
2022-08-12T11:14:47.883Z,100220.63
2022-08-12T11:17:34.898Z,100220.19
2022-08-12T11:20:07.599Z,100226.72
2022-08-12T11:22:38.247Z,100223.38
2022-08-12T11:25:12.458Z,100215.63
2022-08-12T11:27:43.361Z,100211.94
2022-08-12T11:30:31.101Z,100220.88
2022-08-12T11:33:02.731Z,100214.00
2022-08-12T11:35:44.128Z,100208.28
2022-08-12T11:38:15.250Z,100214.78
2022-08-12T11:40:51.970Z,100210.31
2022-08-12T11:43:22.756Z,100203.03
2022-08-12T11:45:56.507Z,100201.41
2022-08-12T11:48:27.699Z,100203.94
2022-08-12T11:51:18.620Z,100187.66
2022-08-12T11:53:59.035Z,100188.47
2022-08-12T11:56:38.064Z,100186.03
2022-08-12T12:02:05.192Z,100175.97
2022-08-12T12:04:36.554Z,100173.56
2022-08-12T12:07:11.532Z,100172.31
2022-08-12T12:09:52.066Z,100175.19
2022-08-12T12:12:26.282Z,100176.78
2022-08-12T12:15:00.483Z,100176.78
2022-08-12T12:17:42.971Z,100178.81
2022-08-12T12:20:14.797Z,100173.09
2022-08-12T12:22:45.762Z,100173.56
2022-08-12T12:25:16.310Z,100181.34
2022-08-12T12:28:04.437Z,100161.75
2022-08-12T12:30:37.244Z,100176.53
2022-08-12T12:33:17.722Z,100174.94
2022-08-12T12:36:20.047Z,100181.09
2022-08-12T12:38:39.908Z,100173.78
2022-08-12T12:41:14.470Z,100176.66
2022-08-12T12:44:04.193Z,100168.16
2022-08-12T12:46:35.297Z,100171.47
2022-08-12T12:49:10.956Z,100170.69
2022-08-12T12:51:48.765Z,100176.50
2022-08-12T12:54:24.431Z,100172.09
2022-08-12T12:56:59.749Z,100167.75
2022-08-12T12:59:55.349Z,100172.78
2022-08-12T13:02:31.333Z,100170.47
2022-08-12T13:05:13.861Z,100171.41
2022-08-12T13:07:54.251Z,100171.06
2022-08-12T13:10:32.152Z,100167.84
2022-08-12T13:14:07.844Z,100166.69
2022-08-12T13:16:02.842Z,100170.81
2022-08-12T13:18:38.700Z,100168.41
2022-08-12T13:21:32.730Z,100163.94
2022-08-12T13:24:09.682Z,100168.94
2022-08-12T13:26:41.705Z,100165.72
2022-08-12T13:29:13.406Z,100172.69
2022-08-12T13:32:19.204Z,100164.59
2022-08-12T13:34:37.149Z,100164.69
2022-08-12T13:37:10.162Z,100168.00
2022-08-12T13:39:40.976Z,100165.59
2022-08-12T13:42:14.401Z,100162.81
2022-08-12T13:44:46.277Z,100164.06
2022-08-12T13:47:19.857Z,100168.16
2022-08-12T13:49:56.075Z,100172.72
2022-08-12T13:52:28.580Z,100165.41
2022-08-12T13:54:59.300Z,100171.59
2022-08-12T13:57:46.978Z,100156.13
2022-08-12T14:00:18.979Z,100154.19
2022-08-12T14:02:53.270Z,100141.59
2022-08-12T14:05:31.502Z,100153.47
2022-08-12T14:08:14.670Z,100157.25
2022-08-12T14:10:54.467Z,100154.81
2022-08-12T14:14:05.386Z,100159.03
2022-08-12T14:16:37.415Z,100153.41
2022-08-12T14:19:22.366Z,100153.06
2022-08-12T14:22:01.618Z,100165.31
2022-08-12T14:24:41.139Z,100157.97
2022-08-12T14:27:12.903Z,100158.41
2022-08-12T14:30:05.768Z,100158.88
2022-08-12T14:32:40.058Z,100164.22
2022-08-12T14:35:11.660Z,100161.81
2022-08-12T14:37:56.472Z,100161.00
2022-08-12T14:40:32.069Z,100151.28
2022-08-12T14:43:06.283Z,100153.78
2022-08-12T14:45:48.952Z,100155.47
2022-08-12T14:48:23.974Z,100157.16
2022-08-12T14:52:38.730Z,100156.34
2022-08-12T14:54:55.858Z,100156.00
2022-08-12T14:57:19.851Z,100150.72
2022-08-12T14:59:58.399Z,100151.19
2022-08-12T15:02:30.179Z,100150.41
2022-08-12T15:05:03.807Z,100150.81
2022-08-12T15:07:50.200Z,100153.69
2022-08-12T15:10:31.150Z,100142.72
2022-08-12T15:13:08.180Z,100141.91
2022-08-12T15:15:45.748Z,100146.47
2022-08-12T15:18:22.989Z,100144.50
2022-08-12T15:20:57.846Z,100134.34
2022-08-12T15:23:54.778Z,100134.78
2022-08-12T15:26:36.705Z,100140.56
2022-08-12T15:29:11.863Z,100138.59
2022-08-12T15:32:01.934Z,100140.31
2022-08-12T15:34:37.105Z,100139.16
2022-08-12T15:37:09.231Z,100142.91
2022-08-12T15:39:40.013Z,100142.53
2022-08-12T15:42:30.387Z,100142.22
2022-08-12T15:45:02.853Z,100142.22
2022-08-12T15:47:49.755Z,100139.00
2022-08-12T15:50:23.363Z,100136.56
2022-08-12T15:53:14.687Z,100141.47
2022-08-12T15:55:46.798Z,100133.00
2022-08-12T15:58:17.944Z,100139.97
2022-08-12T16:00:54.320Z,100145.28
2022-08-12T16:03:45.947Z,100149.84
2022-08-12T16:06:31.163Z,100141.38
2022-08-12T16:09:09.893Z,100150.81
2022-08-12T16:11:43.439Z,100145.56
2022-08-12T16:14:16.222Z,100142.34
2022-08-12T16:16:49.188Z,100149.75
2022-08-12T16:20:03.829Z,100151.41
2022-08-12T16:22:11.615Z,100153.56
2022-08-12T16:24:47.726Z,100152.41
2022-08-12T16:27:24.138Z,100163.88
2022-08-12T16:29:58.398Z,100154.97
2022-08-12T16:32:34.484Z,100171.28
2022-08-12T16:35:16.357Z,100172.16
2022-08-12T16:38:25.447Z,100183.25
2022-08-12T16:40:39.611Z,100181.25
2022-08-12T16:43:30.774Z,100187.84
2022-08-12T16:46:31.787Z,100189.53
2022-08-12T16:48:59.577Z,100196.94
2022-08-12T16:51:40.775Z,100192.91
2022-08-12T16:54:17.227Z,100202.69
2022-08-12T16:56:55.388Z,100199.84
2022-08-12T16:59:54.724Z,100207.56
2022-08-12T17:02:33.802Z,100216.59
2022-08-12T17:05:16.227Z,100220.22
2022-08-12T17:07:52.145Z,100219.88
2022-08-12T17:10:36.152Z,100219.06
2022-08-12T17:13:10.668Z,100231.31
2022-08-12T17:15:57.351Z,100226.00
2022-08-12T17:18:43.372Z,100228.88
2022-08-12T17:21:20.259Z,100227.25
2022-08-12T17:24:15.026Z,100228.94
2022-08-12T17:26:49.629Z,100230.19
2022-08-12T17:29:32.140Z,100232.25
2022-08-12T17:32:14.708Z,100229.47
2022-08-12T17:35:02.181Z,100232.31
2022-08-12T17:37:35.575Z,100230.72
2022-08-12T17:40:13.865Z,100232.75
2022-08-12T17:42:49.176Z,100234.00
2022-08-12T17:45:20.244Z,100226.66
2022-08-12T17:48:00.967Z,100233.63
2022-08-12T17:50:35.424Z,100238.16
2022-08-12T17:53:10.953Z,100239.78
2022-08-12T17:55:48.282Z,100242.25
2022-08-12T17:58:37.567Z,100239.41
2022-08-12T18:01:11.240Z,100241.47
2022-08-12T18:04:05.698Z,100241.47
2022-08-12T18:06:38.423Z,100248.41
2022-08-12T18:09:10.966Z,100249.19
2022-08-12T18:12:07.825Z,100246.00
2022-08-12T18:14:41.130Z,100245.63
2022-08-12T18:17:15.115Z,100253.34
2022-08-12T18:20:06.994Z,100252.56
2022-08-12T18:22:39.538Z,100250.16
2022-08-12T18:26:15.416Z,100258.72
2022-08-12T18:28:31.031Z,100258.34
2022-08-12T18:31:04.039Z,100260.75
2022-08-12T18:33:41.717Z,100256.28
2022-08-12T18:36:22.742Z,100255.91
2022-08-12T18:38:59.732Z,100258.41
2022-08-12T18:41:36.325Z,100261.69
2022-08-12T18:44:10.075Z,100269.44
2022-08-12T18:46:55.718Z,100260.91
2022-08-12T18:49:34.959Z,100262.94
2022-08-12T18:52:11.838Z,100272.75
2022-08-12T18:54:49.214Z,100267.06
2022-08-12T18:58:07.619Z,100267.84
2022-08-12T19:00:22.365Z,100274.78
2022-08-12T19:02:54.335Z,100270.69
2022-08-12T19:05:53.902Z,100282.09
2022-08-12T19:08:18.565Z,100283.34
2022-08-12T19:10:50.423Z,100292.25
2022-08-12T19:13:43.689Z,100281.31
2022-08-12T19:16:14.099Z,100283.78
2022-08-12T19:18:47.035Z,100285.81
2022-08-12T19:21:20.165Z,100281.34
2022-08-12T19:24:14.375Z,100277.69
2022-08-12T19:26:46.352Z,100271.63
2022-08-12T19:29:30.077Z,100277.31
2022-08-12T19:32:12.680Z,100276.53
2022-08-12T19:36:00.885Z,100285.44
2022-08-12T19:38:06.374Z,100267.97
2022-08-12T19:40:37.339Z,100279.81
2022-08-12T19:43:20.346Z,100272.06
2022-08-12T19:45:57.277Z,100279.38
2022-08-12T19:48:32.857Z,100283.03
2022-08-12T19:51:08.980Z,100279.38
2022-08-12T19:53:57.998Z,100280.63
2022-08-12T19:56:29.908Z,100280.63
2022-08-12T19:59:15.574Z,100280.19
2022-08-12T20:02:03.242Z,100285.50
2022-08-12T20:04:38.089Z,100285.91
2022-08-12T20:07:23.067Z,100292.44
2022-08-12T20:09:56.450Z,100288.78
2022-08-12T20:12:32.635Z,100289.22
2022-08-12T20:15:10.714Z,100284.31
2022-08-12T20:17:50.394Z,100282.28
2022-08-12T20:20:27.670Z,100283.50
2022-08-12T20:22:59.356Z,100277.81
2022-08-12T20:25:53.538Z,100272.91
2022-08-12T20:28:20.104Z,100274.97
2022-08-12T20:30:59.230Z,100272.13
2022-08-12T20:33:56.462Z,100261.50
2022-08-12T20:36:42.457Z,100264.78
2022-08-12T20:39:33.986Z,100258.28
2022-08-12T20:42:12.170Z,100267.28
2022-08-12T20:44:45.490Z,100261.19
2022-08-12T20:47:19.537Z,100268.50
2022-08-12T20:49:55.700Z,100271.34
2022-08-12T20:52:35.341Z,100265.66
2022-08-12T20:55:15.778Z,100266.09
2022-08-12T20:58:02.531Z,100270.19
2022-08-12T21:00:35.972Z,100265.72
2022-08-12T21:03:20.306Z,100271.44
2022-08-12T21:06:13.278Z,100266.97
2022-08-12T21:08:50.661Z,100262.94
2022-08-12T21:11:25.130Z,100257.66
2022-08-12T21:13:59.095Z,100266.22
2022-08-12T21:16:35.791Z,100258.91
2022-08-12T21:19:11.922Z,100258.91
2022-08-12T21:21:58.808Z,100257.31
2022-08-12T21:24:32.375Z,100254.47
2022-08-12T21:27:07.388Z,100252.41
2022-08-12T21:29:40.209Z,100250.78
2022-08-12T21:32:39.389Z,100243.47
2022-08-12T21:35:19.154Z,100239.03
2022-08-12T21:37:54.575Z,100228.44
2022-08-12T21:40:36.701Z,100239.41
2022-08-12T21:43:09.894Z,100236.53
2022-08-12T21:45:47.255Z,100225.16
2022-08-12T21:48:31.308Z,100216.59
2022-08-12T21:51:02.087Z,100223.13
2022-08-12T21:54:07.848Z,100224.34
2022-08-12T21:56:34.511Z,100219.06
2022-08-12T21:59:13.596Z,100223.53
2022-08-12T22:01:48.965Z,100236.16
2022-08-12T22:04:37.142Z,100237.41
2022-08-12T22:07:08.537Z,100232.97
2022-08-12T22:09:42.664Z,100237.41
2022-08-12T22:12:31.219Z,100227.28
2022-08-12T22:15:02.254Z,100231.38
2022-08-12T22:17:50.357Z,100232.16
2022-08-12T22:20:29.738Z,100222.00
2022-08-12T22:23:07.475Z,100230.53
2022-08-12T22:25:41.400Z,100220.38
2022-08-12T22:28:29.095Z,100224.06
2022-08-12T22:31:15.155Z,100223.22
2022-08-12T22:33:53.986Z,100227.31
2022-08-12T22:36:29.140Z,100231.44
2022-08-12T22:39:01.786Z,100231.84
2022-08-12T22:41:56.811Z,100220.44
2022-08-12T22:44:55.220Z,100222.94
2022-08-12T22:47:55.784Z,100211.19
2022-08-12T22:50:29.869Z,100208.31
2022-08-12T22:53:15.720Z,100208.31
2022-08-12T22:56:00.100Z,100211.19
2022-08-12T22:58:41.428Z,100217.28
2022-08-12T23:01:21.210Z,100207.50
2022-08-12T23:03:53.772Z,100214.44
2022-08-12T23:06:29.597Z,100204.28
2022-08-12T23:09:00.468Z,100194.94
2022-08-12T23:11:33.893Z,100198.25
2022-08-12T23:14:14.649Z,100199.47
2022-08-12T23:16:47.025Z,100199.09
2022-08-12T23:19:23.166Z,100196.25
2022-08-12T23:22:05.128Z,100197.50
2022-08-12T23:24:53.765Z,100193.47
2022-08-12T23:27:50.793Z,100201.19
2022-08-12T23:30:31.964Z,100198.78
2022-08-12T23:33:19.786Z,100201.25
2022-08-12T23:36:03.642Z,100200.47
2022-08-12T23:38:35.856Z,100199.66
2022-08-12T23:41:13.406Z,100189.06
2022-08-12T23:43:49.875Z,100193.97
2022-08-12T23:46:26.301Z,100189.06
2022-08-12T23:49:01.090Z,100183.00
2022-08-12T23:51:32.320Z,100193.16
2022-08-12T23:54:10.468Z,100193.97
2022-08-12T23:57:10.776Z,100197.69
2022-08-12T23:59:47.272Z,100202.53
